Time;durP1;ratioP1;P1;durP2;ratioP2;P2;SDS_P1;SDS_P2;PMS_P1;PMS_P2;Temp;Humidity;BMP_temperature;BMP_pressure;BME280_temperature;BME280_humidity;BME280_pressure;Samples;Min_cycle;Max_cycle;Signal;HPM_P1;HPM_P2
2022/09/26 00:01:10;;;;;;;32.78;11.40;;;;;;;13.41;79.68;99464.41;5077669;27;20138;-90
2022/09/26 00:03:37;;;;;;;22.48;11.52;;;;;;;13.44;79.62;99461.41;5087063;27;20123;-89
2022/09/26 00:06:06;;;;;;;21.20;10.30;;;;;;;13.41;79.56;99465.25;5069404;27;20075;-90
2022/09/26 00:08:33;;;;;;;26.98;10.90;;;;;;;13.37;79.59;99461.22;5111507;27;20093;-90
2022/09/26 00:11:02;;;;;;;21.60;10.50;;;;;;;13.40;79.33;99466.22;5078068;27;20478;-89
2022/09/26 00:13:30;;;;;;;23.45;11.40;;;;;;;13.37;79.28;99463.06;5072922;27;20054;-89
2022/09/26 00:15:57;;;;;;;28.48;11.07;;;;;;;13.41;79.32;99464.41;5084085;27;20142;-90
2022/09/26 00:18:24;;;;;;;23.73;11.82;;;;;;;13.39;79.48;99453.06;5103944;27;20063;-90
2022/09/26 00:20:51;;;;;;;28.48;11.05;;;;;;;13.36;79.30;99456.06;5081048;27;20428;-89
2022/09/26 00:23:18;;;;;;;27.90;12.23;;;;;;;13.39;79.28;99464.56;5080282;27;20122;-91
2022/09/26 00:25:49;;;;;;;28.13;11.18;;;;;;;13.33;79.36;99459.91;5060208;27;20047;-90
2022/09/26 00:28:17;;;;;;;23.95;11.15;;;;;;;13.41;79.54;99464.41;5072171;27;20051;-89
2022/09/26 00:30:44;;;;;;;32.80;12.23;;;;;;;13.38;79.66;99454.06;5111658;27;20043;-89
2022/09/26 00:33:11;;;;;;;30.75;11.73;;;;;;;13.39;79.07;99455.75;5104530;27;20490;-89
2022/09/26 00:35:38;;;;;;;25.08;11.95;;;;;;;13.34;79.03;99452.72;5088758;27;20067;-89
2022/09/26 00:38:04;;;;;;;34.80;13.23;;;;;;;13.34;79.26;99452.72;5117078;27;20051;-90
2022/09/26 00:40:31;;;;;;;31.23;11.63;;;;;;;13.32;79.12;99454.72;5093031;27;20048;-89
2022/09/26 00:42:58;;;;;;;25.73;12.55;;;;;;;13.24;79.33;99453.66;5103527;27;20036;-90
2022/09/26 00:45:30;;;;;;;35.58;13.43;;;;;;;13.22;79.21;99452.16;5080418;27;20043;-88
2022/09/26 00:48:01;;;;;;;33.67;12.45;;;;;;;13.23;79.18;99453.84;5108564;27;20043;-90
2022/09/26 00:50:32;;;;;;;26.38;13.13;;;;;;;13.17;79.61;99449.97;5099705;27;20101;-90
2022/09/26 00:53:10;;;;;;;28.13;12.77;;;;;;;13.18;79.29;99450.81;5063172;27;20048;-90
2022/09/26 00:55:44;;;;;;;36.00;12.93;;;;;;;13.16;79.57;99445.66;5096249;27;20500;-90
2022/09/26 00:58:14;;;;;;;33.15;13.00;;;;;;;13.19;79.27;99439.97;5107186;27;20099;-89
2022/09/26 01:00:42;;;;;;;26.63;12.60;;;;;;;13.16;79.74;99440.31;5086121;27;20039;-90
2022/09/26 01:03:09;;;;;;;27.90;13.02;;;;;;;13.20;79.30;99438.16;5104235;27;20041;-88
2022/09/26 01:05:36;;;;;;;36.40;12.75;;;;;;;13.18;79.04;99438.31;5111653;27;20070;-90
2022/09/26 01:08:04;;;;;;;29.42;12.07;;;;;;;13.09;79.41;99436.63;5083310;27;20050;-90
2022/09/26 01:10:31;;;;;;;32.17;12.60;;;;;;;13.10;79.65;99432.13;5073621;27;20051;-89
2022/09/26 01:13:00;;;;;;;31.40;13.10;;;;;;;13.10;79.08;99426.78;5087899;27;20036;-90
2022/09/26 01:15:27;;;;;;;31.70;13.45;;;;;;;13.05;79.50;99429.94;5069237;27;20620;-89
2022/09/26 01:17:54;;;;;;;30.02;13.20;;;;;;;13.04;79.59;99428.28;5090736;27;20092;-89
2022/09/26 01:20:49;;;;;;;36.08;14.45;;;;;;;12.91;79.57;99431.38;5103849;27;20057;-89
2022/09/26 01:23:40;;;;;;;37.13;14.63;;;;;;;12.93;79.75;99429.41;5045589;27;20071;-89
2022/09/26 01:26:37;;;;;;;39.33;14.55;;;;;;;12.95;79.54;99431.88;5091843;27;20054;-89
2022/09/26 01:29:10;;;;;;;36.38;13.70;;;;;;;12.97;79.40;99428.06;5112247;27;20049;-89
2022/09/26 01:34:58;;;;;;;32.83;13.77;;;;;;;12.98;79.15;99428.94;5097028;27;20043;-89
2022/09/26 01:37:52;;;;;;;31.65;13.77;;;;;;;12.91;79.51;99425.22;5116704;27;20100;-89
2022/09/26 01:40:30;;;;;;;28.92;13.35;;;;;;;12.96;79.03;99428.25;5088577;27;20043;-89
2022/09/26 01:43:14;;;;;;;31.13;12.82;;;;;;;12.94;79.39;99428.41;5060367;27;20581;-90
2022/09/26 01:45:47;;;;;;;35.20;13.95;;;;;;;13.11;79.23;99428.47;5064452;27;20047;-90
2022/09/26 01:48:18;;;;;;;37.10;15.07;;;;;;;13.04;79.50;99430.94;5085520;27;20039;-89
2022/09/26 01:51:15;;;;;;;35.20;14.02;;;;;;;12.84;79.51;99437.53;5077450;27;20453;-90
2022/09/26 01:53:48;;;;;;;36.45;14.23;;;;;;;13.09;79.04;99430.47;5061957;27;20194;-89
2022/09/26 01:56:18;;;;;;;32.95;13.23;;;;;;;13.06;78.64;99431.63;5074499;27;20139;-89
2022/09/26 01:59:16;;;;;;;34.55;13.43;;;;;;;12.92;78.90;99426.88;5100281;27;20054;-90
2022/09/26 02:01:49;;;;;;;34.80;13.68;;;;;;;13.09;78.77;99438.47;5063139;27;20051;-89
2022/09/26 02:04:22;;;;;;;32.92;14.40;;;;;;;13.06;78.63;99422.78;5076836;27;20071;-89
2022/09/26 02:06:59;;;;;;;34.47;14.82;;;;;;;13.01;78.98;99420.59;5102078;27;20058;-91
2022/09/26 02:09:33;;;;;;;37.03;13.60;;;;;;;13.07;78.48;99422.59;5106501;27;20035;-90
2022/09/26 02:12:05;;;;;;;31.83;13.90;;;;;;;13.12;78.47;99414.13;5083739;27;20050;-90
2022/09/26 02:14:34;;;;;;;41.17;14.93;;;;;;;13.07;78.57;99411.94;5104735;27;20101;-90
2022/09/26 02:17:08;;;;;;;32.65;14.15;;;;;;;13.02;78.35;99411.59;5079119;27;20042;-89
2022/09/26 02:19:46;;;;;;;32.22;14.25;;;;;;;13.08;78.45;99404.78;5104800;27;20039;-88
2022/09/26 02:22:14;;;;;;;33.58;15.15;;;;;;;13.09;79.03;99398.47;5102546;27;20048;-90
2022/09/26 02:24:40;;;;;;;32.10;14.80;;;;;;;13.10;79.23;99406.31;5074279;27;20040;-89
2022/09/26 02:27:07;;;;;;;32.40;13.48;;;;;;;13.09;79.19;99399.31;5090413;27;20161;-90
2022/09/26 02:29:34;;;;;;;34.58;13.73;;;;;;;13.03;79.42;99398.13;5101729;27;20418;-90
2022/09/26 02:32:11;;;;;;;38.22;14.40;;;;;;;13.03;79.16;99395.47;5064577;27;20123;-89
2022/09/26 02:34:42;;;;;;;33.05;14.13;;;;;;;12.97;79.44;99401.41;5075079;27;20379;-90
2022/09/26 02:37:10;;;;;;;29.30;13.38;;;;;;;13.01;79.46;99392.13;5108772;27;20118;-93
2022/09/26 02:39:38;;;;;;;27.85;12.90;;;;;;;13.00;79.78;99393.13;5076211;27;20067;-94
2022/09/26 02:42:30;;;;;;;35.22;13.80;;;;;;;12.85;79.66;99388.56;5084699;27;20435;-95
2022/09/26 02:45:20;;;;;;;33.53;14.32;;;;;;;12.82;79.96;99381.72;5096333;27;20054;-95
2022/09/26 02:48:25;;;;;;;31.92;13.63;;;;;;;12.84;80.03;99386.91;5081575;28;20039;-95
2022/09/26 02:51:16;;;;;;;30.23;13.73;;;;;;;12.81;80.04;99380.88;5047993;27;20074;-94
2022/09/26 02:54:13;;;;;;;32.92;14.57;;;;;;;12.78;80.56;99375.88;5114352;27;20059;-94
2022/09/26 02:56:58;;;;;;;35.63;13.68;;;;;;;12.96;80.02;99377.63;5056165;27;20043;-95
2022/09/26 02:59:37;;;;;;;30.90;13.52;;;;;;;12.85;80.37;99368.09;5072427;27;20050;-94
2022/09/26 03:02:17;;;;;;;31.40;14.20;;;;;;;12.89;80.73;99368.59;5083350;27;20039;-94
2022/09/26 03:05:06;;;;;;;32.05;14.80;;;;;;;12.97;80.19;99368.59;5073373;28;20502;-92
2022/09/26 03:07:46;;;;;;;34.40;14.63;;;;;;;12.87;80.32;99363.41;5078810;27;20055;-92
2022/09/26 03:10:13;;;;;;;32.80;13.95;;;;;;;12.91;80.42;99359.44;5076898;27;20514;-94
2022/09/26 03:12:43;;;;;;;31.27;13.10;;;;;;;12.95;80.06;99357.28;5082341;27;20050;-95
2022/09/26 03:15:11;;;;;;;31.13;12.45;;;;;;;12.97;80.16;99358.78;5082590;27;20137;-94
2022/09/26 03:17:43;;;;;;;31.45;13.32;;;;;;;12.93;80.50;99356.63;5074479;28;20055;-94
2022/09/26 03:20:15;;;;;;;37.80;14.05;;;;;;;12.93;80.67;99348.63;5107075;27;20067;-96
2022/09/26 03:22:54;;;;;;;27.70;11.93;;;;;;;12.81;81.05;99343.59;5089262;28;20088;-94
2022/09/26 03:25:24;;;;;;;30.40;13.65;;;;;;;12.93;80.60;99346.78;5071148;28;20048;-93
2022/09/26 03:28:05;;;;;;;27.45;12.90;;;;;;;12.91;80.60;99350.63;5096502;28;20107;-94
2022/09/26 03:30:33;;;;;;;33.93;13.20;;;;;;;12.94;80.22;99332.47;5088641;27;20477;-94
2022/09/26 03:33:22;;;;;;;33.45;13.90;;;;;;;12.91;80.49;99331.97;5093693;28;20044;-95
2022/09/26 03:35:50;;;;;;;37.15;14.50;;;;;;;12.87;80.27;99323.44;5108372;27;20133;-96
2022/09/26 03:38:19;;;;;;;29.48;15.30;;;;;;;12.88;79.92;99319.81;5075628;27;20499;-87
2022/09/26 03:40:52;;;;;;;42.10;20.67;;;;;;;12.84;79.72;99318.44;5092732;27;20082;-87
2022/09/26 03:43:42;;;;;;;50.80;22.33;;;;;;;12.84;79.66;99314.94;5096980;27;20050;-87
2022/09/26 03:46:11;;;;;;;47.20;22.10;;;;;;;12.84;79.45;99315.78;5083779;27;20035;-87
2022/09/26 03:48:38;;;;;;;57.58;22.40;;;;;;;12.82;79.56;99315.97;5083362;27;20039;-86
2022/09/26 03:51:10;;;;;;;43.28;19.67;;;;;;;12.77;79.17;99310.28;5086764;27;20057;-87
2022/09/26 03:53:39;;;;;;;50.92;20.27;;;;;;;12.79;79.55;99315.44;5086711;27;20047;-86
2022/09/26 03:56:11;;;;;;;44.07;19.93;;;;;;;12.79;79.26;99307.44;5097551;27;20054;-87
2022/09/26 03:58:38;;;;;;;47.65;20.50;;;;;;;12.75;79.83;99306.13;5100639;27;20488;-87
2022/09/26 04:01:10;;;;;;;50.42;21.75;;;;;;;12.76;79.27;99302.44;5083587;27;20047;-86
2022/09/26 04:03:39;;;;;;;49.80;20.73;;;;;;;12.72;79.53;99306.41;5090872;27;20108;-86
2022/09/26 04:06:07;;;;;;;46.72;20.85;;;;;;;12.68;79.86;99308.59;5091561;27;20370;-87
2022/09/26 04:08:39;;;;;;;43.40;19.58;;;;;;;12.62;79.48;99303.91;5077031;28;20398;-87
2022/09/26 04:11:09;;;;;;;49.78;21.88;;;;;;;12.65;79.42;99302.75;5093425;27;20120;-87
2022/09/26 04:13:36;;;;;;;60.47;22.10;;;;;;;12.69;79.65;99304.09;5107810;27;20039;-86
2022/09/26 04:16:19;;;;;;;57.00;23.13;;;;;;;12.69;79.41;99302.25;5093320;27;20051;-87
2022/09/26 04:18:56;;;;;;;56.88;23.48;;;;;;;12.65;79.08;99305.44;5097351;27;20039;-86
2022/09/26 04:21:25;;;;;;;56.00;23.53;;;;;;;12.62;79.68;99300.41;5054184;27;20062;-87
2022/09/26 04:23:53;;;;;;;50.20;21.30;;;;;;;12.70;79.51;99292.47;5076586;27;20627;-87
2022/09/26 04:26:24;;;;;;;51.28;21.77;;;;;;;12.68;79.36;99286.44;5063209;27;20055;-87
2022/09/26 04:28:54;;;;;;;46.13;21.05;;;;;;;12.69;79.38;99291.59;5098993;27;20110;-87
2022/09/26 04:31:26;;;;;;;49.95;20.20;;;;;;;12.68;79.41;99283.78;5077236;27;20050;-87
2022/09/26 04:34:01;;;;;;;51.42;20.95;;;;;;;12.69;79.64;99280.13;5060655;27;20043;-87
2022/09/26 04:36:31;;;;;;;47.63;20.27;;;;;;;12.68;79.80;99281.94;5108471;27;20073;-87
2022/09/26 04:38:59;;;;;;;53.17;21.90;;;;;;;12.67;80.07;99279.44;5106254;27;20050;-88
2022/09/26 04:41:27;;;;;;;44.80;18.60;;;;;;;12.70;79.63;99279.13;5103494;27;20050;-86
2022/09/26 04:43:56;;;;;;;45.70;19.00;;;;;;;12.62;79.77;99274.63;5104759;27;20031;-80
2022/09/26 04:46:26;;;;;;;47.72;18.95;;;;;;;12.60;79.66;99268.63;5098449;27;20119;-80
2022/09/26 04:48:58;;;;;;;44.00;18.58;;;;;;;12.65;79.89;99265.47;5097774;27;20100;-80
2022/09/26 04:51:26;;;;;;;44.63;19.27;;;;;;;12.62;79.66;99261.31;5085832;27;20468;-80
2022/09/26 04:53:53;;;;;;;43.97;19.55;;;;;;;12.62;79.64;99258.63;5087815;27;20388;-80
2022/09/26 04:56:25;;;;;;;48.10;19.83;;;;;;;12.54;79.91;99256.78;5100431;27;20049;-80
2022/09/26 04:58:55;;;;;;;42.35;17.02;;;;;;;12.56;79.70;99259.28;5094025;27;20557;-80
2022/09/26 05:01:24;;;;;;;44.65;17.63;;;;;;;12.52;79.68;99255.28;5080477;27;20115;-80
2022/09/26 05:04:12;;;;;;;38.35;15.52;;;;;;;12.49;79.37;99248.47;5088956;27;20085;-80
2022/09/26 05:06:39;;;;;;;40.67;16.83;;;;;;;12.45;79.54;99248.94;5095978;27;20545;-80
2022/09/26 05:09:11;;;;;;;35.10;15.20;;;;;;;12.41;79.17;99251.06;5071515;27;20047;-80
2022/09/26 05:12:04;;;;;;;37.17;15.55;;;;;;;12.31;79.50;99247.72;5105657;27;20051;-80
2022/09/26 05:14:34;;;;;;;35.17;15.20;;;;;;;12.35;79.22;99238.41;5105737;27;20042;-80
2022/09/26 05:17:02;;;;;;;33.30;15.63;;;;;;;12.34;79.05;99240.25;5085085;27;20039;-81
2022/09/26 05:19:29;;;;;;;34.45;15.25;;;;;;;12.36;79.05;99251.56;5101855;27;20115;-80
2022/09/26 05:22:31;;;;;;;31.15;13.63;;;;;;;12.26;79.04;99242.03;5067324;27;20362;-80
2022/09/26 05:27:46;;;;;;;43.90;14.93;;;;;;;12.28;79.11;99240.88;5098635;27;20100;-80
2022/09/26 05:30:13;;;;;;;37.22;14.18;;;;;;;12.23;79.18;99242.38;5098523;27;20038;-80
2022/09/26 05:32:40;;;;;;;36.75;13.55;;;;;;;12.19;78.88;99239.19;5069663;27;20047;-80
2022/09/26 05:35:07;;;;;;;38.60;13.63;;;;;;;12.14;78.82;99229.03;5123769;27;20084;-80
2022/09/26 05:37:39;;;;;;;31.38;14.13;;;;;;;12.16;79.05;99228.84;5093215;27;20392;-80
2022/09/26 05:42:58;;;;;;;34.70;12.90;;;;;;;12.05;78.50;99232.66;5124885;27;20571;-80
2022/09/26 05:45:25;;;;;;;38.28;13.55;;;;;;;12.13;78.83;99237.16;5110679;27;20050;-80
2022/09/26 05:47:52;;;;;;;32.55;14.25;;;;;;;12.11;78.87;99245.31;5067037;27;20072;-80
2022/09/26 05:50:21;;;;;;;39.10;14.50;;;;;;;12.18;78.67;99239.34;5104237;27;20050;-80
2022/09/26 05:52:49;;;;;;;35.00;13.65;;;;;;;12.16;78.54;99237.69;5088492;27;20074;-80
2022/09/26 05:55:21;;;;;;;36.05;14.15;;;;;;;12.13;78.68;99229.19;5107844;27;20074;-80
2022/09/26 05:58:14;;;;;;;33.85;14.80;;;;;;;12.18;78.96;99237.53;5079290;27;20035;-80
2022/09/26 06:01:14;;;;;;;33.75;13.80;;;;;;;12.19;79.21;99236.53;5115069;27;20061;-80
2022/09/26 06:03:42;;;;;;;31.40;13.48;;;;;;;12.24;78.90;99238.72;5089067;27;20047;-80
2022/09/26 06:06:18;;;;;;;37.83;13.75;;;;;;;12.26;78.80;99236.72;5104166;27;20482;-80
2022/09/26 06:08:46;;;;;;;32.00;13.25;;;;;;;12.24;79.20;99238.72;5096819;27;20225;-80
2022/09/26 06:11:35;;;;;;;31.20;13.73;;;;;;;12.23;79.32;99234.38;5098363;27;20399;-80
2022/09/26 06:14:02;;;;;;;35.13;14.13;;;;;;;12.23;78.98;99234.38;5089656;27;20517;-80
2022/09/26 06:16:30;;;;;;;31.85;13.18;;;;;;;12.24;79.27;99230.75;5111258;27;20047;-80
2022/09/26 06:18:57;;;;;;;30.40;13.20;;;;;;;12.23;79.23;99232.53;5089566;27;20140;-80
2022/09/26 06:21:24;;;;;;;29.92;12.38;;;;;;;12.24;79.38;99218.25;5106633;27;20513;-80
2022/09/26 06:23:55;;;;;;;30.60;14.52;;;;;;;12.25;79.08;99213.75;5131771;27;20051;-80
2022/09/26 06:26:27;;;;;;;35.28;15.40;;;;;;;12.23;79.23;99221.06;5116818;27;20437;-80
2022/09/26 06:28:59;;;;;;;31.55;14.77;;;;;;;12.27;79.10;99222.44;5071390;27;20150;-80
2022/09/26 06:31:29;;;;;;;40.95;13.68;;;;;;;12.36;78.84;99216.97;5088517;27;20462;-80
2022/09/26 06:34:08;;;;;;;38.85;15.00;;;;;;;12.38;78.83;99219.44;5089505;27;20043;-80
2022/09/26 06:36:47;;;;;;;32.67;14.10;;;;;;;12.42;79.05;99215.47;5092802;27;20072;-80
2022/09/26 06:39:14;;;;;;;38.53;14.60;;;;;;;12.46;78.79;99216.81;5095734;27;20054;-80
2022/09/26 06:41:42;;;;;;;30.95;14.15;;;;;;;12.44;79.38;99212.63;5066243;27;20185;-80
2022/09/26 06:44:30;;;;;;;34.17;14.32;;;;;;;12.51;78.79;99216.31;5086175;27;20108;-80
2022/09/26 06:47:23;;;;;;;33.95;15.73;;;;;;;12.52;79.35;99202.03;5064453;27;20047;-80
2022/09/26 06:50:22;;;;;;;43.17;16.70;;;;;;;12.59;79.35;99206.53;5083962;27;20050;-80
2022/09/26 06:52:53;;;;;;;45.80;15.57;;;;;;;12.66;79.28;99201.38;5096953;28;20051;-80
2022/09/26 06:55:22;;;;;;;43.58;16.77;;;;;;;12.75;79.10;99194.22;5085730;27;20039;-80
2022/09/26 06:57:49;;;;;;;37.75;15.88;;;;;;;12.84;79.10;99195.06;5087481;27;20397;-80
2022/09/26 07:00:17;;;;;;;37.80;14.52;;;;;;;12.91;79.36;99185.41;5092951;27;20550;-80
2022/09/26 07:03:04;;;;;;;34.42;14.90;;;;;;;12.94;79.55;99191.22;5086883;27;20115;-80
2022/09/26 07:05:45;;;;;;;35.72;14.15;;;;;;;13.01;79.40;99180.75;5102911;27;20045;-80
2022/09/26 07:08:13;;;;;;;37.85;14.52;;;;;;;13.04;79.33;99178.56;5095297;27;20039;-80
2022/09/26 07:10:40;;;;;;;33.05;13.55;;;;;;;13.13;79.22;99183.91;5077875;27;20453;-80
2022/09/26 07:13:14;;;;;;;31.92;14.68;;;;;;;13.13;78.69;99187.41;5084468;27;20137;-80
2022/09/26 07:15:44;;;;;;;28.13;12.68;;;;;;;13.15;78.87;99184.53;5089478;27;20104;-80
2022/09/26 07:18:30;;;;;;;28.08;12.75;;;;;;;13.20;78.92;99180.41;5092207;27;20035;-80
2022/09/26 07:21:06;;;;;;;31.02;12.75;;;;;;;13.32;78.57;99188.06;5101757;27;20493;-80
2022/09/26 07:23:45;;;;;;;26.25;12.27;;;;;;;13.38;78.45;99184.72;5089865;28;20378;-80
2022/09/26 07:26:14;;;;;;;28.00;12.10;;;;;;;13.44;78.50;99181.38;5110787;27;20410;-80
2022/09/26 07:28:40;;;;;;;27.35;11.50;;;;;;;13.44;78.07;99176.88;5103460;27;20046;-79
2022/09/26 07:31:07;;;;;;;23.63;10.85;;;;;;;13.41;78.05;99163.88;5099257;27;20072;-80
2022/09/26 07:34:07;;;;;;;27.90;12.13;;;;;;;13.37;78.17;99164.38;5097996;27;20528;-80
2022/09/26 07:36:36;;;;;;;31.98;11.73;;;;;;;13.38;78.29;99161.56;5113821;27;20039;-80
2022/09/26 07:39:02;;;;;;;24.65;10.25;;;;;;;13.41;78.32;99155.06;5110066;27;20110;-80
2022/09/26 07:41:29;;;;;;;24.50;11.48;;;;;;;13.43;78.52;99156.56;5118828;27;20221;-80
2022/09/26 07:43:57;;;;;;;23.35;11.45;;;;;;;13.51;78.29;99155.69;5092385;27;20042;-80
2022/09/26 07:52:29;;;;;;;28.35;9.95;;;;;;;13.71;78.12;99145.44;5120815;27;20047;-80
2022/09/26 07:55:20;;;;;;;23.95;9.82;;;;;;;13.74;78.06;99147.78;5101642;27;20065;-80
2022/09/26 07:57:59;;;;;;;25.45;11.23;;;;;;;13.80;78.03;99152.41;5104468;27;20101;-79
2022/09/26 08:00:36;;;;;;;25.65;12.43;;;;;;;13.79;78.09;99147.22;5098321;27;20497;-80
2022/09/26 08:03:15;;;;;;;30.75;12.75;;;;;;;13.77;77.66;99147.44;5119008;27;20054;-83
2022/09/26 08:05:43;;;;;;;28.70;12.73;;;;;;;13.74;77.74;99137.09;5114186;27;20040;-83
2022/09/26 08:08:09;;;;;;;28.58;12.63;;;;;;;13.72;78.09;99141.78;5101702;27;20054;-84
2022/09/26 08:10:56;;;;;;;31.95;12.13;;;;;;;13.71;77.69;99140.09;5143046;27;20047;-83
2022/09/26 08:13:53;;;;;;;21.63;10.02;;;;;;;13.73;77.97;99134.59;5091670;27;20054;-83
2022/09/26 08:16:46;;;;;;;;;;;;;;;13.55;79.38;99132.16;5113372;27;20061;-83
2022/09/26 08:19:16;;;;;;;23.65;9.88;;;;;;;13.78;78.53;99124.25;5097618;27;19923;-83
2022/09/26 08:21:43;;;;;;;21.98;8.65;;;;;;;13.85;78.42;99119.88;5092216;27;20046;-83
2022/09/26 08:24:10;;;;;;;16.25;7.95;;;;;;;13.90;78.08;99121.00;5103405;27;20066;-82
2022/09/26 08:27:10;;;;;;;17.83;7.95;;;;;;;13.93;78.03;99119.81;5080227;27;20046;-83
2022/09/26 08:29:40;;;;;;;21.63;7.32;;;;;;;13.98;77.99;99117.47;5118246;27;20565;-83
2022/09/26 08:32:07;;;;;;;16.30;6.47;;;;;;;13.99;77.04;99112.94;5117733;27;20043;-83
2022/09/26 08:34:35;;;;;;;16.95;6.97;;;;;;;14.02;76.85;99109.94;5111939;27;20089;-82
2022/09/26 08:37:25;;;;;;;13.35;6.30;;;;;;;14.01;76.63;99114.44;5119334;27;20043;-82
2022/09/26 08:40:14;;;;;;;17.17;6.60;;;;;;;14.03;75.91;99111.59;5107850;27;20093;-82
2022/09/26 08:43:14;;;;;;;12.65;5.35;;;;;;;14.00;75.71;99104.78;5111554;27;20035;-83
2022/09/26 08:48:57;;;;;;;14.30;5.60;;;;;;;14.07;75.17;99099.59;5111108;27;20047;-82
2022/09/26 08:51:39;;;;;;;14.93;5.25;;;;;;;14.11;74.79;99088.34;5105084;27;20051;-83
2022/09/26 08:54:32;;;;;;;10.68;5.15;;;;;;;14.09;74.07;99085.03;5066796;27;20066;-82
2022/09/26 08:57:04;;;;;;;8.55;4.95;;;;;;;14.19;73.80;99087.47;5131599;27;20039;-82
2022/09/26 08:59:42;;;;;;;;;;;;;;;14.02;73.24;99088.59;5104261;27;20954;-82
2022/09/26 09:02:15;;;;;;;14.35;5.07;;;;;;;14.20;73.34;99083.81;5104512;27;19925;-82
2022/09/26 09:05:00;;;;;;;8.88;4.65;;;;;;;14.28;73.21;99088.25;5116336;27;20038;-82
2022/09/26 09:07:26;;;;;;;;;;;;;;;14.21;72.97;99089.97;5102353;27;20088;-82
2022/09/26 09:10:00;;;;;;;11.60;4.93;;;;;;;14.38;72.54;99083.50;5120764;27;19980;-82
2022/09/26 09:13:05;;;;;;;13.35;4.65;;;;;;;14.34;71.89;99080.34;5095679;27;20097;-82
2022/09/26 09:16:10;;;;;;;11.43;4.00;;;;;;;14.40;71.80;99076.16;5108372;27;20406;-83
2022/09/26 09:19:11;;;;;;;12.80;4.57;;;;;;;14.37;71.71;99072.97;5094204;27;20044;-83
2022/09/26 09:21:59;;;;;;;12.95;3.70;;;;;;;14.47;72.33;99079.75;5104422;27;20039;-83
2022/09/26 09:24:56;;;;;;;9.60;3.97;;;;;;;14.52;71.92;99069.34;5080773;27;20122;-82
2022/09/26 09:27:56;;;;;;;12.00;4.90;;;;;;;14.41;71.05;99059.09;5107195;27;20043;-82
2022/09/26 09:30:57;;;;;;;14.23;4.35;;;;;;;14.33;70.24;99057.31;5098481;27;20047;-83
2022/09/26 09:33:51;;;;;;;12.80;4.18;;;;;;;14.43;71.23;99066.94;5081804;27;20047;-83
2022/09/26 09:36:36;;;;;;;9.95;4.07;;;;;;;14.43;71.47;99061.59;5119934;27;20080;-82
2022/09/26 09:39:34;;;;;;;6.45;3.67;;;;;;;14.38;70.26;99062.13;5093587;27;20114;-83
2022/09/26 09:42:22;;;;;;;12.27;3.95;;;;;;;14.36;70.64;99058.81;5092704;27;20045;-83
2022/09/26 09:45:05;;;;;;;8.25;4.50;;;;;;;14.41;70.53;99058.28;5104071;27;20042;-83
2022/09/26 09:47:37;;;;;;;15.45;4.28;;;;;;;14.51;71.46;99049.00;5076888;27;20062;-83
2022/09/26 09:50:12;;;;;;;6.43;4.18;;;;;;;14.52;71.15;99045.31;5102560;27;20051;-83
2022/09/26 09:52:39;;;;;;;9.73;4.40;;;;;;;14.61;71.31;99035.41;5105192;27;20043;-83
2022/09/26 09:55:47;;;;;;;9.82;4.10;;;;;;;14.52;70.24;99041.81;5114841;27;20045;-83
2022/09/26 09:58:23;;;;;;;22.65;7.25;;;;;;;14.64;71.11;99028.88;5080912;27;20063;-83
2022/09/26 10:01:16;;;;;;;43.00;10.23;;;;;;;14.64;70.74;99029.72;5103224;27;20051;-83
2022/09/26 10:03:54;;;;;;;25.73;7.05;;;;;;;14.64;71.23;99021.69;5114938;27;20452;-83
2022/09/26 10:06:21;;;;;;;13.57;4.68;;;;;;;14.67;71.34;99018.66;5125809;27;20048;-83
2022/09/26 10:09:25;;;;;;;9.18;5.00;;;;;;;14.62;71.10;99026.38;5078514;27;20134;-83
2022/09/26 10:12:29;;;;;;;12.27;4.05;;;;;;;14.63;71.15;99027.22;5115707;27;20666;-83
2022/09/26 10:15:18;;;;;;;7.85;3.85;;;;;;;14.63;71.02;99016.53;5123189;27;20807;-83
2022/09/26 10:18:15;;;;;;;10.80;3.92;;;;;;;14.58;70.81;99009.06;5112127;27;20049;-83
2022/09/26 10:21:11;;;;;;;10.20;3.73;;;;;;;14.57;70.52;99007.41;5079435;27;20126;-83
2022/09/26 10:23:39;;;;;;;7.32;3.78;;;;;;;14.60;71.01;99001.69;5092617;27;20814;-83
2022/09/26 10:26:25;;;;;;;8.63;3.65;;;;;;;14.57;70.86;99001.22;5098494;27;20482;-82
2022/09/26 10:28:59;;;;;;;7.05;3.83;;;;;;;14.62;71.20;98993.50;5105376;27;20042;-82
2022/09/26 10:31:34;;;;;;;6.07;3.80;;;;;;;14.62;70.81;98998.84;5104262;27;20047;-82
2022/09/26 10:34:24;;;;;;;6.10;4.30;;;;;;;14.62;70.52;98990.81;5108619;27;20055;-84
2022/09/26 10:36:51;;;;;;;11.77;3.58;;;;;;;14.66;70.89;98984.13;5125007;27;20043;-83
2022/09/26 10:42:19;;;;;;;9.50;3.60;;;;;;;14.57;70.50;98977.19;5111375;27;20483;-82
2022/09/26 10:44:49;;;;;;;12.57;4.30;;;;;;;14.61;71.37;98984.66;5078099;27;20466;-83
2022/09/26 10:47:24;;;;;;;13.57;4.50;;;;;;;14.58;71.76;98982.34;5117123;27;20047;-82
2022/09/26 10:50:13;;;;;;;6.45;3.10;;;;;;;14.52;71.67;98991.88;5115458;27;20050;-83
2022/09/26 10:53:10;;;;;;;10.98;4.90;;;;;;;14.57;73.47;98990.53;5104070;27;20059;-83
2022/09/26 10:55:42;;;;;;;9.15;4.85;;;;;;;14.56;73.80;98975.53;5108787;27;20042;-83
2022/09/26 10:58:16;;;;;;;14.30;4.45;;;;;;;14.57;74.14;98986.03;5091403;27;20032;-83
2022/09/26 11:00:45;;;;;;;15.63;5.32;;;;;;;14.58;74.04;98978.84;5100666;27;20441;-83
2022/09/26 11:03:19;;;;;;;11.93;4.47;;;;;;;14.57;74.66;98970.00;5098174;27;20100;-83
2022/09/26 11:06:34;;;;;;;8.95;3.80;;;;;;;14.50;74.68;98955.66;5093879;27;20411;-83
2022/09/26 11:09:10;;;;;;;6.93;3.70;;;;;;;14.61;74.39;98965.13;5124553;27;20035;-83
2022/09/26 11:12:22;;;;;;;18.20;4.95;;;;;;;14.53;75.72;98956.19;5068749;27;20486;-83
2022/09/26 11:14:55;;;;;;;16.88;5.10;;;;;;;14.60;75.21;98953.59;5102361;27;20581;-83
2022/09/26 11:17:48;;;;;;;11.20;4.88;;;;;;;14.48;75.48;98945.19;5114116;27;20044;-83
2022/09/26 11:20:33;;;;;;;17.67;4.72;;;;;;;14.56;74.54;98946.16;5102733;27;20058;-82
2022/09/26 11:23:08;;;;;;;8.85;4.20;;;;;;;14.50;74.79;98948.50;5103429;27;20043;-83
2022/09/26 11:25:53;;;;;;;11.60;4.68;;;;;;;14.47;74.75;98956.88;5126858;27;20050;-83
2022/09/26 11:28:31;;;;;;;4.38;2.55;;;;;;;14.50;72.62;98940.50;5101858;27;20050;-82
2022/09/26 11:31:28;;;;;;;10.67;2.53;;;;;;;14.41;71.92;98956.78;5113817;27;20043;-82
2022/09/26 11:34:25;;;;;;;5.53;2.45;;;;;;;14.39;70.92;98946.25;5114383;27;20138;-83
2022/09/26 11:37:11;;;;;;;6.50;2.40;;;;;;;14.30;71.59;98963.41;5097406;27;20081;-83
2022/09/26 11:39:51;;;;;;;10.02;3.17;;;;;;;14.26;72.87;98980.78;5130791;27;20435;-82
2022/09/26 12:37:03;;;;;;;6.28;3.20;;;;;;;14.25;78.94;98843.78;5116038;27;20032;-80
2022/09/26 12:39:48;;;;;;;6.35;2.83;;;;;;;14.27;78.38;98835.56;5105332;28;20039;-80
2022/09/26 12:42:44;;;;;;;7.28;4.07;;;;;;;14.33;77.68;98832.19;5096188;28;20032;-80
2022/09/26 12:45:32;;;;;;;9.68;3.63;;;;;;;14.39;77.45;98827.94;5116239;28;20040;-80
2022/09/26 12:48:24;;;;;;;7.57;3.75;;;;;;;14.36;77.55;98818.44;5113499;28;20036;-80
2022/09/26 12:51:22;;;;;;;8.32;3.72;;;;;;;14.40;77.59;98813.53;5112278;28;20091;-80
2022/09/26 12:54:00;;;;;;;7.38;3.90;;;;;;;14.48;77.89;98824.97;5073436;28;20052;-80
2022/09/26 12:56:46;;;;;;;9.63;4.25;;;;;;;14.54;77.55;98821.59;5102927;28;20051;-80
2022/09/26 12:59:16;;;;;;;8.50;3.58;;;;;;;14.56;77.30;98817.91;5098697;28;20039;-80
2022/09/26 13:01:59;;;;;;;11.07;3.80;;;;;;;14.48;77.07;98803.59;5084507;28;20441;-80
2022/09/26 13:04:43;;;;;;;9.10;2.92;;;;;;;14.50;75.72;98811.41;5089145;28;20051;-80
2022/09/26 13:07:40;;;;;;;6.95;2.70;;;;;;;14.39;74.85;98809.22;5102143;28;20048;-87
2022/09/26 13:10:28;;;;;;;5.25;3.20;;;;;;;14.37;75.28;98811.25;5105737;28;20051;-87
2022/09/26 13:17:49;;;;;;;3.28;2.30;;;;;;;14.27;73.98;98809.72;5123543;28;20033;-87
2022/09/26 13:20:26;;;;;;;6.57;2.65;;;;;;;14.34;74.75;98807.13;5083996;27;20051;-81
2022/09/26 13:23:01;;;;;;;9.90;3.05;;;;;;;14.37;74.91;98812.06;5097945;28;20046;-82
2022/09/26 13:25:42;;;;;;;6.43;2.40;;;;;;;14.42;74.92;98806.19;5088367;28;20043;-80
2022/09/26 13:28:36;;;;;;;5.00;1.92;;;;;;;14.27;73.80;98812.38;5093398;28;20039;-79